Time;durP1;ratioP1;P1;durP2;ratioP2;P2;SDS_P1;SDS_P2;PMS_P1;PMS_P2;Temp;Humidity;BMP_temperature;BMP_pressure;BME280_temperature;BME280_humidity;BME280_pressure;Samples;Min_cycle;Max_cycle;Signal;HPM_P1;HPM_P2
2022/10/31 00:00:15;;;;;;;35.30;15.60;;;;;;;8.95;85.58;100628.76;51396;1310;1016432;-77
2022/10/31 00:03:07;;;;;;;31.90;14.80;;;;;;;8.92;85.73;100629.43;51390;1310;1016450;-78
2022/10/31 00:05:41;;;;;;;33.90;15.20;;;;;;;8.88;85.81;100632.66;51493;1310;1016367;-77
2022/10/31 00:08:12;;;;;;;33.30;14.90;;;;;;;8.84;86.05;100638.59;51511;1295;1016494;-78
2022/10/31 00:10:44;;;;;;;39.60;17.20;;;;;;;8.80;85.94;100636.27;51365;1310;1015868;-77
2022/10/31 00:13:18;;;;;;;32.40;13.70;;;;;;;8.79;86.07;100631.38;51490;1310;1019808;-78
2022/10/31 00:15:49;;;;;;;31.60;15.20;;;;;;;8.77;86.02;100626.89;51366;1303;1016419;-77
2022/10/31 00:18:20;;;;;;;27.50;12.70;;;;;;;8.75;86.01;100630.72;51452;1287;1016509;-77
2022/10/31 00:20:58;;;;;;;37.50;14.40;;;;;;;8.72;86.08;100631.35;51373;1308;1016174;-78
2022/10/31 00:23:30;;;;;;;31.00;14.00;;;;;;;8.68;86.07;100630.78;51354;1310;1016170;-77
2022/10/31 00:26:05;;;;;;;30.50;14.00;;;;;;;8.65;86.03;100634.48;51483;1309;1015609;-77
2022/10/31 00:28:36;;;;;;;34.30;14.90;;;;;;;8.60;86.17;100632.20;51344;1310;1016511;-77
2022/10/31 00:31:09;;;;;;;28.40;13.00;;;;;;;8.57;86.17;100631.27;51339;1310;1016264;-77
2022/10/31 00:33:41;;;;;;;30.00;14.50;;;;;;;8.55;86.17;100633.42;51326;1310;1016387;-77
2022/10/31 00:36:15;;;;;;;32.40;14.80;;;;;;;8.52;86.23;100635.52;51424;1294;1016509;-77
2022/10/31 00:38:47;;;;;;;33.30;14.70;;;;;;;8.49;86.16;100635.91;51348;1309;1016289;-77
2022/10/31 00:41:19;;;;;;;32.30;13.90;;;;;;;8.46;86.21;100636.71;51402;1310;1016361;-77
2022/10/31 00:43:50;;;;;;;32.00;14.50;;;;;;;8.44;86.38;100638.47;51331;1310;1016304;-78
2022/10/31 00:46:22;;;;;;;32.20;14.10;;;;;;;8.41;86.36;100636.58;51456;1311;1017100;-78
2022/10/31 00:48:53;;;;;;;30.40;14.00;;;;;;;8.39;86.34;100631.49;51366;1309;1017984;-78
2022/10/31 00:51:24;;;;;;;33.00;13.90;;;;;;;8.37;86.34;100629.29;51467;1302;1015565;-78
2022/10/31 00:53:55;;;;;;;37.30;15.10;;;;;;;8.34;86.32;100623.83;51338;1310;1016409;-77
2022/10/31 00:56:27;;;;;;;28.10;13.10;;;;;;;8.31;86.33;100626.56;51444;1288;1016189;-77
2022/10/31 00:58:59;;;;;;;29.80;12.60;;;;;;;8.28;86.39;100626.51;51340;1310;1015916;-78
2022/10/31 01:01:30;;;;;;;28.10;12.70;;;;;;;8.25;86.44;100633.27;51503;1286;1016372;-77
2022/10/31 01:04:01;;;;;;;31.20;14.10;;;;;;;8.23;86.47;100635.02;51361;1310;1016396;-77
2022/10/31 01:06:32;;;;;;;32.40;13.00;;;;;;;8.20;86.70;100635.69;51455;1294;1016067;-77
2022/10/31 01:09:04;;;;;;;29.90;14.20;;;;;;;8.17;86.49;100638.00;51356;1309;1016324;-77
2022/10/31 01:11:35;;;;;;;30.10;12.70;;;;;;;8.16;86.53;100641.69;51397;1311;1016690;-77
2022/10/31 01:14:07;;;;;;;36.20;15.80;;;;;;;8.16;86.65;100640.02;51474;1307;1016464;-77
2022/10/31 01:16:38;;;;;;;33.30;14.20;;;;;;;8.16;86.69;100639.87;51375;1310;1016533;-78
2022/10/31 01:19:10;;;;;;;27.20;13.80;;;;;;;8.17;86.89;100638.89;51490;1286;1017340;-77
2022/10/31 01:21:41;;;;;;;29.50;14.70;;;;;;;8.17;86.77;100639.11;51351;1309;1016241;-77
2022/10/31 01:24:12;;;;;;;30.00;14.40;;;;;;;8.17;86.79;100643.41;51457;1294;1016476;-77
2022/10/31 01:26:44;;;;;;;37.40;14.80;;;;;;;8.15;86.72;100639.59;51395;1309;1016018;-77
2022/10/31 01:29:15;;;;;;;35.50;15.20;;;;;;;8.13;86.85;100639.98;51494;1309;1015899;-77
2022/10/31 01:31:46;;;;;;;34.50;15.00;;;;;;;8.12;86.69;100642.23;51446;1310;1015844;-77
2022/10/31 01:34:19;;;;;;;34.00;16.70;;;;;;;8.11;86.96;100639.65;51503;1309;1016572;-77
2022/10/31 01:36:51;;;;;;;33.80;16.60;;;;;;;8.09;86.78;100644.02;51334;1309;1016970;-77
2022/10/31 01:39:23;;;;;;;33.70;15.70;;;;;;;8.07;87.10;100645.69;51397;1310;1015766;-77
2022/10/31 01:41:55;;;;;;;38.10;15.80;;;;;;;8.03;86.93;100640.08;51474;1310;1016257;-77
2022/10/31 01:44:55;;;;;;;35.40;15.90;;;;;;;8.01;86.92;100639.85;51396;1280;1016519;-77
2022/10/31 01:47:41;;;;;;;30.80;15.10;;;;;;;7.99;86.96;100641.04;51361;1286;1016159;-77
2022/10/31 01:50:24;;;;;;;32.80;14.10;;;;;;;7.98;87.17;100639.73;51513;1310;1016484;-77
2022/10/31 01:52:56;;;;;;;32.80;13.60;;;;;;;7.97;87.14;100640.63;51486;1310;1016427;-78
2022/10/31 01:55:31;;;;;;;32.20;14.20;;;;;;;7.96;87.18;100641.30;51376;1302;1016544;-78
2022/10/31 01:58:07;;;;;;;29.60;12.40;;;;;;;7.95;87.15;100638.98;51440;1310;1016435;-78
2022/10/31 02:00:39;;;;;;;31.20;13.30;;;;;;;7.92;87.25;100640.34;51479;1310;1016116;-78
2022/10/31 02:03:10;;;;;;;27.10;12.50;;;;;;;7.90;87.49;100642.02;51460;1297;1016067;-77
2022/10/31 02:05:42;;;;;;;31.70;12.50;;;;;;;7.88;87.39;100644.63;51445;1302;1016459;-78
2022/10/31 02:08:19;;;;;;;34.60;12.30;;;;;;;7.84;87.39;100646.66;51379;1310;1016390;-78
2022/10/31 02:10:50;;;;;;;24.50;10.80;;;;;;;7.81;87.41;100651.27;51477;1310;1018148;-77
2022/10/31 02:13:23;;;;;;;31.50;11.90;;;;;;;7.78;87.45;100648.46;51387;1287;1019804;-77
2022/10/31 02:15:57;;;;;;;26.50;11.40;;;;;;;7.75;87.44;100656.50;51505;1310;1015842;-78
2022/10/31 02:18:31;;;;;;;30.80;11.70;;;;;;;7.72;87.32;100654.86;51449;1310;1016056;-77
2022/10/31 02:21:12;;;;;;;29.40;11.70;;;;;;;7.70;87.34;100655.65;51357;1308;1017915;-77
2022/10/31 02:24:17;;;;;;;30.20;11.60;;;;;;;7.68;87.33;100657.46;51392;1309;1016620;-77
2022/10/31 02:27:15;;;;;;;28.20;10.40;;;;;;;7.65;87.32;100661.56;51327;1310;1016045;-77
2022/10/31 02:30:11;;;;;;;27.00;11.40;;;;;;;7.62;87.21;100659.73;51175;1316;1016090;-77
2022/10/31 02:33:01;;;;;;;25.60;11.60;;;;;;;7.58;87.31;100658.07;51054;1317;1016332;-78
2022/10/31 02:35:38;;;;;;;;;;;;;;;7.55;87.28;100658.64;51092;1316;1016517;-77
2022/10/31 02:38:20;;;;;;;28.30;10.80;;;;;;;7.50;87.44;100658.48;51178;1317;1015975;-77
2022/10/31 02:41:00;;;;;;;25.80;11.70;;;;;;;7.49;87.65;100655.81;51128;1317;1016937;-77
2022/10/31 02:43:41;;;;;;;27.10;11.40;;;;;;;7.50;87.95;100654.98;51162;1292;1016418;-77
2022/10/31 02:46:20;;;;;;;25.50;9.70;;;;;;;7.50;88.17;100662.84;51080;1295;1016450;-78
2022/10/31 02:48:55;;;;;;;25.70;11.00;;;;;;;7.51;88.11;100660.22;51134;1317;1016264;-77
2022/10/31 02:51:26;;;;;;;22.10;10.40;;;;;;;7.52;88.25;100665.16;51110;1305;1018146;-78
2022/10/31 02:53:58;;;;;;;26.60;10.40;;;;;;;7.51;88.17;100657.65;51164;1311;1016227;-78
2022/10/31 02:56:29;;;;;;;27.50;10.80;;;;;;;7.50;88.18;100660.15;51141;1317;1016437;-78
2022/10/31 02:59:05;;;;;;;27.00;10.50;;;;;;;7.49;88.08;100659.46;51091;1316;1016345;-77
2022/10/31 03:02:11;;;;;;;25.30;10.60;;;;;;;7.48;88.07;100656.11;51143;1316;1016955;-76
2022/10/31 03:05:00;;;;;;;28.30;10.00;;;;;;;7.45;88.04;100654.92;51146;1293;1016467;-78
2022/10/31 03:07:41;;;;;;;22.50;9.90;;;;;;;7.45;88.16;100658.03;51320;1310;1016170;-77
2022/10/31 03:10:21;;;;;;;26.90;9.70;;;;;;;7.46;88.22;100658.40;51444;1288;1016355;-78
2022/10/31 03:13:06;;;;;;;22.40;9.60;;;;;;;7.45;88.26;100664.39;51455;1294;1019710;-78
2022/10/31 03:15:42;;;;;;;23.80;10.20;;;;;;;7.43;88.20;100664.94;51361;1309;1016032;-77
2022/10/31 03:18:19;;;;;;;25.10;10.20;;;;;;;7.40;88.05;100666.23;51371;1296;1018216;-77
2022/10/31 03:20:57;;;;;;;25.80;11.40;;;;;;;7.38;88.13;100674.38;51459;1297;1016217;-77
2022/10/31 03:23:31;;;;;;;25.70;10.60;;;;;;;7.36;88.13;100675.61;51369;1303;1016798;-77
2022/10/31 03:26:06;;;;;;;23.40;10.30;;;;;;;7.33;88.16;100675.88;51474;1310;1016411;-77
2022/10/31 03:28:43;;;;;;;23.10;9.30;;;;;;;7.29;88.13;100679.16;51421;1310;1016376;-77
2022/10/31 03:31:18;;;;;;;27.10;10.30;;;;;;;7.27;88.21;100681.86;51373;1280;1016434;-78
2022/10/31 03:33:52;;;;;;;24.70;9.70;;;;;;;7.25;88.15;100680.58;51402;1309;1016686;-77
2022/10/31 03:36:24;;;;;;;24.10;9.80;;;;;;;7.21;88.19;100683.64;51457;1294;1015904;-76
2022/10/31 03:38:56;;;;;;;22.20;9.50;;;;;;;7.19;88.13;100684.41;51479;1310;1016205;-77
2022/10/31 03:41:33;;;;;;;26.40;10.30;;;;;;;7.17;88.16;100686.23;51477;1310;1016269;-77
2022/10/31 03:44:12;;;;;;;22.90;8.50;;;;;;;7.14;88.19;100686.48;51344;1309;1017590;-77
2022/10/31 03:46:45;;;;;;;23.10;9.80;;;;;;;7.12;88.01;100689.95;51473;1311;1016160;-77
2022/10/31 03:49:17;;;;;;;25.80;10.40;;;;;;;7.09;88.07;100697.02;51429;1304;1016723;-77
2022/10/31 03:51:55;;;;;;;26.30;9.40;;;;;;;7.07;88.06;100694.88;51395;1280;1015930;-76
2022/10/31 03:54:32;;;;;;;24.70;9.80;;;;;;;7.05;88.09;100697.08;51490;1310;1016451;-77
2022/10/31 03:57:08;;;;;;;24.10;9.50;;;;;;;7.02;88.14;100693.45;51523;1307;1017243;-77
2022/10/31 03:59:43;;;;;;;23.90;8.90;;;;;;;7.01;88.08;100697.98;51343;1286;1018077;-77
2022/10/31 04:02:18;;;;;;;24.80;9.40;;;;;;;6.99;88.07;100697.21;51501;1295;1016484;-78
2022/10/31 04:04:51;;;;;;;22.00;9.00;;;;;;;6.97;88.02;100697.64;51414;1310;1020447;-78
2022/10/31 04:07:26;;;;;;;21.30;8.80;;;;;;;6.94;88.05;100697.25;51389;1303;1015997;-78
2022/10/31 04:10:01;;;;;;;23.90;9.80;;;;;;;6.94;88.08;100695.45;51477;1303;1015635;-77
2022/10/31 04:12:35;;;;;;;25.20;8.70;;;;;;;6.92;88.10;100697.58;51353;1310;1015893;-78
2022/10/31 04:15:10;;;;;;;33.30;10.60;;;;;;;6.90;88.13;100697.00;51378;1295;1016511;-78
2022/10/31 04:17:45;;;;;;;22.90;9.70;;;;;;;6.88;88.19;100696.33;51462;1309;1016323;-77
2022/10/31 04:20:19;;;;;;;20.70;8.90;;;;;;;6.88;88.32;100696.76;51427;1309;1016916;-77
2022/10/31 04:22:50;;;;;;;23.70;9.80;;;;;;;6.87;88.25;100700.35;51513;1310;1016510;-78
2022/10/31 04:25:21;;;;;;;26.10;9.50;;;;;;;6.85;88.13;100705.09;51356;1294;1016010;-76
2022/10/31 04:27:52;;;;;;;25.30;9.50;;;;;;;6.84;88.25;100699.23;51534;1309;1019651;-77
2022/10/31 04:30:24;;;;;;;22.60;9.00;;;;;;;6.83;88.27;100698.23;51387;1310;1016086;-77
2022/10/31 04:32:56;;;;;;;23.20;10.00;;;;;;;6.82;88.33;100695.83;51391;1310;1016093;-77
2022/10/31 04:35:27;;;;;;;26.50;9.80;;;;;;;6.81;88.38;100699.48;51406;1309;1016173;-77
2022/10/31 04:37:59;;;;;;;24.50;9.60;;;;;;;6.79;88.49;100702.63;51561;1310;1016755;-77
2022/10/31 04:40:30;;;;;;;27.40;10.40;;;;;;;6.80;88.49;100702.77;51547;1309;1019815;-77
2022/10/31 04:43:01;;;;;;;28.70;10.00;;;;;;;6.79;88.44;100703.98;51448;1294;1016437;-76
2022/10/31 04:45:33;;;;;;;25.90;10.50;;;;;;;6.80;88.47;100700.16;51375;1299;1015847;-76
2022/10/31 04:48:05;;;;;;;25.80;10.40;;;;;;;6.78;88.35;100699.41;51337;1294;1016002;-75
2022/10/31 04:50:38;;;;;;;25.00;9.50;;;;;;;6.76;88.48;100706.53;51439;1283;1016093;-75
2022/10/31 04:53:09;;;;;;;27.50;11.10;;;;;;;6.75;88.43;100706.02;51376;1309;1016354;-77
2022/10/31 04:55:40;;;;;;;25.30;10.20;;;;;;;6.74;88.45;100707.33;51497;1296;1016518;-77
2022/10/31 04:58:12;;;;;;;26.50;10.20;;;;;;;6.70;88.42;100708.05;51340;1294;1015574;-76
2022/10/31 05:00:43;;;;;;;25.90;10.60;;;;;;;6.68;88.59;100705.45;51477;1294;1016413;-76
2022/10/31 05:03:14;;;;;;;27.70;11.30;;;;;;;6.65;88.50;100712.25;51440;1288;1016154;-76
2022/10/31 05:05:45;;;;;;;27.40;10.50;;;;;;;6.65;88.49;100714.24;51400;1303;1016507;-76
2022/10/31 05:08:17;;;;;;;22.60;8.70;;;;;;;6.63;88.59;100716.03;51561;1303;1016881;-78
2022/10/31 05:10:48;;;;;;;21.50;9.20;;;;;;;6.63;88.53;100718.41;51513;1309;1015900;-77
2022/10/31 05:13:19;;;;;;;26.00;10.10;;;;;;;6.61;88.52;100717.35;51565;1310;1018191;-77
2022/10/31 05:15:51;;;;;;;24.40;9.80;;;;;;;6.60;88.46;100717.17;51519;1279;1016144;-78
2022/10/31 05:18:23;;;;;;;23.00;9.20;;;;;;;6.57;88.63;100719.86;51525;1310;1015720;-78
2022/10/31 05:20:54;;;;;;;25.70;10.20;;;;;;;6.57;88.63;100719.08;51531;1304;1015833;-78
2022/10/31 05:23:26;;;;;;;27.10;10.00;;;;;;;6.55;88.65;100719.27;51675;1310;1016209;-78
2022/10/31 05:25:57;;;;;;;24.50;8.60;;;;;;;6.53;88.61;100722.11;51678;1310;1016272;-79
2022/10/31 05:28:29;;;;;;;24.30;8.90;;;;;;;6.52;88.62;100724.67;51653;1310;1016534;-78
2022/10/31 05:31:00;;;;;;;26.00;8.90;;;;;;;6.50;88.62;100725.84;51448;1310;1016449;-78
2022/10/31 05:33:31;;;;;;;27.10;9.30;;;;;;;6.49;88.71;100723.50;51654;1310;1017456;-78
2022/10/31 05:36:03;;;;;;;23.80;9.60;;;;;;;6.48;88.76;100728.52;51612;1310;1017167;-78
2022/10/31 05:38:34;;;;;;;26.20;9.30;;;;;;;6.45;88.66;100728.36;51432;1302;1016547;-78
2022/10/31 05:41:05;;;;;;;24.50;8.10;;;;;;;6.43;88.83;100728.00;51483;1309;1016464;-78
2022/10/31 05:43:37;;;;;;;24.90;8.70;;;;;;;6.41;88.85;100729.50;51425;1311;1015699;-78
2022/10/31 05:46:09;;;;;;;25.80;8.40;;;;;;;6.40;88.72;100731.52;51608;1310;1016129;-78
2022/10/31 05:48:40;;;;;;;26.10;8.70;;;;;;;6.40;88.72;100732.02;51881;1310;1016253;-80
2022/10/31 05:51:13;;;;;;;23.80;8.70;;;;;;;6.39;88.83;100729.07;52060;1287;1016136;-79
2022/10/31 05:53:45;;;;;;;24.80;8.70;;;;;;;6.40;88.89;100733.73;51892;1310;1016048;-80
2022/10/31 05:56:16;;;;;;;22.80;8.30;;;;;;;6.40;88.91;100734.27;51633;1310;1016434;-80
2022/10/31 05:58:47;;;;;;;21.10;8.80;;;;;;;6.40;88.83;100738.80;51565;1310;1015615;-80
2022/10/31 06:01:18;;;;;;;20.00;8.70;;;;;;;6.40;88.90;100736.51;51608;1310;1016520;-80
2022/10/31 06:03:51;;;;;;;28.60;10.40;;;;;;;6.39;88.87;100735.92;51852;1294;1016487;-81
2022/10/31 06:06:22;;;;;;;25.00;8.80;;;;;;;6.38;88.92;100736.02;51862;1310;1016259;-80
2022/10/31 06:08:53;;;;;;;25.10;9.90;;;;;;;6.37;89.04;100734.07;51593;1310;1015662;-80
2022/10/31 06:11:25;;;;;;;23.20;8.80;;;;;;;6.37;89.18;100732.07;51855;1310;1018671;-81
2022/10/31 06:13:56;;;;;;;22.50;8.70;;;;;;;6.37;89.32;100735.70;51828;1310;1016285;-80
2022/10/31 06:16:28;;;;;;;25.30;8.90;;;;;;;6.39;89.28;100736.06;51684;1310;1016528;-80
2022/10/31 06:18:59;;;;;;;24.50;9.30;;;;;;;6.40;89.37;100735.96;51621;1304;1015845;-80
2022/10/31 06:21:30;;;;;;;25.20;8.20;;;;;;;6.41;89.44;100742.75;51876;1309;1016150;-80
2022/10/31 06:24:01;;;;;;;23.60;8.70;;;;;;;6.42;89.62;100746.11;51661;1309;1016550;-80
2022/10/31 06:26:33;;;;;;;27.10;10.10;;;;;;;6.44;89.60;100748.91;51839;1294;1016050;-80
2022/10/31 06:29:05;;;;;;;28.60;9.60;;;;;;;6.45;89.68;100751.02;51633;1310;1015620;-80
2022/10/31 06:31:36;;;;;;;26.40;9.60;;;;;;;6.48;89.87;100748.00;51796;1286;1015864;-80
2022/10/31 06:34:07;;;;;;;28.10;10.50;;;;;;;6.52;89.98;100755.43;51681;1309;1015819;-80
2022/10/31 06:36:39;;;;;;;24.60;7.80;;;;;;;6.54;89.92;100756.40;51833;1310;1016077;-79
2022/10/31 06:39:11;;;;;;;26.50;10.00;;;;;;;6.58;90.02;100759.16;51780;1310;1016355;-80
2022/10/31 06:41:43;;;;;;;26.30;10.80;;;;;;;6.61;90.27;100764.29;51629;1310;1016241;-80
2022/10/31 06:44:14;;;;;;;25.20;9.20;;;;;;;6.65;90.48;100762.30;51627;1309;1015710;-79
2022/10/31 06:46:46;;;;;;;25.40;9.90;;;;;;;6.70;90.54;100767.77;51619;1310;1016530;-80
2022/10/31 06:49:18;;;;;;;25.40;9.10;;;;;;;6.75;90.71;100766.66;51674;1310;1015757;-80
2022/10/31 06:51:53;;;;;;;24.70;8.70;;;;;;;6.82;90.93;100765.60;51918;1310;1016444;-80
2022/10/31 06:54:25;;;;;;;29.00;10.50;;;;;;;6.88;91.25;100769.70;51615;1310;1018127;-80
2022/10/31 06:56:56;;;;;;;29.30;9.90;;;;;;;6.93;91.30;100766.37;51645;1303;1015938;-80
2022/10/31 06:59:27;;;;;;;30.90;11.70;;;;;;;6.99;91.77;100770.77;51847;1309;1016683;-80
2022/10/31 07:02:00;;;;;;;24.00;10.30;;;;;;;7.06;91.85;100772.15;51667;1311;1016365;-79
2022/10/31 07:04:31;;;;;;;38.80;11.90;;;;;;;7.11;92.00;100772.23;51815;1312;1015866;-80
2022/10/31 07:07:03;;;;;;;32.50;11.90;;;;;;;7.17;92.21;100775.63;51632;1309;1016113;-79
2022/10/31 07:09:34;;;;;;;33.70;12.00;;;;;;;7.25;92.66;100778.48;51760;1307;1016448;-80
2022/10/31 07:12:06;;;;;;;28.70;10.90;;;;;;;7.33;93.28;100782.77;51791;1307;1016368;-80
2022/10/31 07:14:37;;;;;;;27.20;11.30;;;;;;;7.41;93.69;100782.43;51596;1310;1015442;-80
2022/10/31 07:17:09;;;;;;;30.00;11.00;;;;;;;7.51;94.02;100785.45;51634;1304;1015952;-80
2022/10/31 07:19:40;;;;;;;31.30;13.20;;;;;;;7.61;94.18;100788.16;51626;1312;1016119;-80
2022/10/31 07:22:11;;;;;;;26.50;10.20;;;;;;;7.69;94.28;100788.69;51800;1312;1015765;-80
2022/10/31 07:24:43;;;;;;;31.30;12.30;;;;;;;7.76;94.18;100791.01;51720;1310;1018944;-80
2022/10/31 07:27:16;;;;;;;36.80;11.80;;;;;;;7.84;94.50;100791.36;51874;1309;1015883;-81
2022/10/31 07:29:48;;;;;;;25.10;11.60;;;;;;;7.94;94.98;100796.04;51814;1311;1015197;-80
2022/10/31 07:32:20;;;;;;;28.60;11.50;;;;;;;8.03;95.15;100797.30;51665;1310;1016034;-80
2022/10/31 07:34:51;;;;;;;29.90;10.80;;;;;;;8.13;95.62;100792.15;51576;1312;1015996;-80
2022/10/31 07:37:22;;;;;;;30.50;11.90;;;;;;;8.23;95.81;100797.29;51823;1312;1015531;-79
2022/10/31 07:39:54;;;;;;;33.40;11.90;;;;;;;8.32;96.11;100794.40;51763;1309;1016473;-79
2022/10/31 07:42:25;;;;;;;30.30;12.10;;;;;;;8.41;96.22;100794.94;51592;1312;1016051;-80
2022/10/31 07:44:56;;;;;;;34.90;11.00;;;;;;;8.51;96.64;100795.54;51816;1312;1016700;-80
2022/10/31 07:47:28;;;;;;;28.00;10.50;;;;;;;8.62;96.99;100802.59;51654;1311;1016612;-80
2022/10/31 07:49:59;;;;;;;24.90;10.90;;;;;;;8.71;96.99;100801.70;51585;1309;1016475;-80
2022/10/31 07:52:31;;;;;;;33.90;12.40;;;;;;;8.81;97.50;100798.25;51804;1312;1016450;-79
2022/10/31 07:55:02;;;;;;;31.80;11.00;;;;;;;8.94;97.90;100797.60;51784;1311;1015552;-80
2022/10/31 07:57:34;;;;;;;26.20;11.00;;;;;;;9.08;98.08;100798.95;51595;1309;1015977;-80
2022/10/31 08:00:06;;;;;;;33.20;11.70;;;;;;;9.20;98.36;100798.37;51839;1312;1016099;-80
2022/10/31 08:02:37;;;;;;;28.40;11.30;;;;;;;9.34;98.86;100797.99;51846;1309;1016124;-80
2022/10/31 08:05:09;;;;;;;28.20;10.60;;;;;;;9.47;99.08;100800.17;51600;1310;1015464;-80
2022/10/31 08:07:41;;;;;;;30.50;10.70;;;;;;;9.60;99.14;100802.77;51841;1308;1016312;-80
2022/10/31 08:10:12;;;;;;;29.90;10.70;;;;;;;9.74;99.66;100806.98;51647;1283;1016175;-79
2022/10/31 08:12:44;;;;;;;30.40;11.10;;;;;;;9.90;99.78;100803.84;51653;1312;1016554;-80
2022/10/31 08:15:16;;;;;;;29.40;10.10;;;;;;;10.06;99.82;100800.17;51826;1312;1016127;-80
2022/10/31 08:17:48;;;;;;;27.50;10.50;;;;;;;10.21;99.66;100800.37;51892;1304;1016332;-80
2022/10/31 08:20:20;;;;;;;32.50;9.30;;;;;;;10.36;99.77;100796.30;51791;1310;1016462;-80
2022/10/31 08:23:00;;;;;;;30.10;9.80;;;;;;;10.53;99.64;100794.46;51810;1312;1018186;-80
2022/10/31 08:25:33;;;;;;;24.50;8.70;;;;;;;10.68;99.83;100797.66;51628;1312;1016226;-80
2022/10/31 08:28:05;;;;;;;22.60;7.90;;;;;;;10.85;99.59;100806.63;51624;1309;1016134;-80
2022/10/31 08:30:39;;;;;;;24.80;7.00;;;;;;;10.96;99.14;100807.26;51613;1312;1016099;-80
2022/10/31 08:33:13;;;;;;;20.70;7.90;;;;;;;11.07;99.08;100809.33;51843;1310;1016259;-80
2022/10/31 08:35:45;;;;;;;23.60;8.60;;;;;;;11.20;98.97;100812.20;51696;1312;1016720;-80
2022/10/31 08:38:17;;;;;;;25.60;9.00;;;;;;;11.33;98.83;100808.66;51843;1312;1016405;-79
2022/10/31 08:40:50;;;;;;;27.10;8.00;;;;;;;11.46;98.85;100807.09;51666;1299;1016413;-79
2022/10/31 08:43:21;;;;;;;25.70;7.00;;;;;;;11.59;98.59;100809.65;51508;1310;1016265;-80
2022/10/31 08:45:54;;;;;;;23.40;6.40;;;;;;;11.73;98.28;100812.01;51610;1312;1016441;-79
2022/10/31 08:48:26;;;;;;;20.00;6.00;;;;;;;11.92;97.78;100804.85;51529;1312;1016076;-80
2022/10/31 08:50:59;;;;;;;20.20;6.30;;;;;;;12.14;97.06;100811.91;51654;1312;1016491;-80
2022/10/31 08:53:32;;;;;;;21.40;6.90;;;;;;;12.32;96.33;100808.62;51600;1306;1016608;-79
2022/10/31 08:56:03;;;;;;;25.00;7.40;;;;;;;12.48;96.04;100807.52;51648;1312;1016384;-80
2022/10/31 08:58:34;;;;;;;24.30;7.30;;;;;;;12.64;96.04;100811.08;51588;1311;1016383;-80
2022/10/31 09:01:06;;;;;;;21.80;6.30;;;;;;;12.82;95.74;100811.75;51554;1310;1016109;-80
2022/10/31 09:03:37;;;;;;;27.30;6.40;;;;;;;12.96;95.42;100809.48;51632;1311;1016231;-80
2022/10/31 09:06:10;;;;;;;26.90;7.30;;;;;;;13.12;95.21;100806.27;51808;1308;1016226;-81
2022/10/31 09:08:42;;;;;;;21.70;7.10;;;;;;;13.25;94.84;100803.97;51863;1312;1016475;-80
2022/10/31 09:11:13;;;;;;;25.80;6.40;;;;;;;13.43;94.37;100805.42;51752;1312;1016612;-80
2022/10/31 09:13:45;;;;;;;21.80;6.50;;;;;;;13.58;93.87;100805.17;51577;1312;1015555;-80
2022/10/31 09:16:16;;;;;;;20.30;5.70;;;;;;;13.77;93.59;100808.47;51879;1310;1015989;-80
2022/10/31 09:18:49;;;;;;;22.80;6.90;;;;;;;13.97;92.20;100808.81;51621;1294;1019237;-80
2022/10/31 09:21:20;;;;;;;21.30;6.00;;;;;;;14.17;91.50;100805.27;51844;1312;1016157;-80
2022/10/31 09:23:53;;;;;;;18.30;5.50;;;;;;;14.36;90.77;100812.70;51854;1312;1016098;-80
2022/10/31 09:26:25;;;;;;;21.30;4.50;;;;;;;14.57;90.12;100813.31;51690;1304;1016312;-80
2022/10/31 09:28:57;;;;;;;24.80;5.00;;;;;;;14.72;89.39;100815.61;51909;1311;1016247;-80
2022/10/31 09:31:28;;;;;;;19.40;4.90;;;;;;;14.79;89.22;100818.06;51859;1304;1015996;-80
2022/10/31 09:34:00;;;;;;;17.80;4.50;;;;;;;14.86;88.63;100816.09;51845;1312;1016133;-80
2022/10/31 09:36:31;;;;;;;18.90;5.80;;;;;;;14.91;88.53;100813.13;51636;1294;1016361;-79
2022/10/31 09:39:03;;;;;;;21.00;6.20;;;;;;;14.97;88.74;100814.52;51823;1309;1016228;-80
2022/10/31 09:41:51;;;;;;;18.70;5.30;;;;;;;15.06;88.28;100816.05;51827;1312;1015475;-80
2022/10/31 09:44:32;;;;;;;23.90;6.10;;;;;;;15.13;87.55;100819.39;51834;1310;1016051;-80
2022/10/31 09:47:12;;;;;;;24.20;5.30;;;;;;;15.19;87.68;100819.19;51618;1315;1017157;-79
2022/10/31 09:50:02;;;;;;;18.80;5.30;;;;;;;15.24;87.46;100820.62;51798;1310;1015654;-80
2022/10/31 09:52:37;;;;;;;16.60;3.90;;;;;;;15.30;86.72;100820.16;51666;1312;1015953;-79
2022/10/31 09:55:18;;;;;;;15.70;5.00;;;;;;;15.43;86.29;100820.09;51911;1312;1018202;-80
2022/10/31 09:57:51;;;;;;;20.40;4.10;;;;;;;15.57;85.86;100823.43;51844;1312;1016841;-80
2022/10/31 10:00:24;;;;;;;27.30;4.30;;;;;;;15.70;85.66;100822.92;51783;1312;1016431;-80
2022/10/31 10:03:02;;;;;;;20.30;4.10;;;;;;;15.82;83.96;100819.37;51882;1311;1016471;-80
2022/10/31 10:05:42;;;;;;;17.70;4.80;;;;;;;15.92;84.16;100819.89;52249;1312;1016498;-79
2022/10/31 10:08:19;;;;;;;12.10;3.30;;;;;;;15.99;84.29;100816.98;52288;1312;1016150;-80
2022/10/31 10:10:57;;;;;;;15.50;4.00;;;;;;;16.09;82.34;100816.33;51922;1312;1016211;-80
2022/10/31 10:13:48;;;;;;;14.40;4.10;;;;;;;16.18;83.45;100816.02;51630;1312;1015998;-80
2022/10/31 10:16:41;;;;;;;20.20;4.40;;;;;;;16.27;83.18;100812.52;51840;1312;1016243;-79
2022/10/31 10:19:25;;;;;;;14.30;3.60;;;;;;;16.38;82.52;100813.29;51719;1309;1016099;-79
2022/10/31 10:22:10;;;;;;;18.60;4.40;;;;;;;16.46;82.50;100816.30;51651;1310;1016417;-79
2022/10/31 10:25:01;;;;;;;18.50;3.60;;;;;;;16.47;82.08;100812.05;51828;1311;1018899;-79
2022/10/31 10:27:39;;;;;;;;;;;;;;;16.51;82.01;100807.89;51847;1312;1016532;-79
2022/10/31 10:30:20;;;;;;;17.70;3.60;;;;;;;16.54;81.65;100804.21;51676;1313;1016128;-80
2022/10/31 10:32:54;;;;;;;15.20;3.70;;;;;;;16.61;81.80;100803.42;51697;1312;1016458;-80
2022/10/31 10:35:30;;;;;;;16.20;3.80;;;;;;;16.67;81.09;100802.57;51684;1309;1016437;-80
2022/10/31 10:38:11;;;;;;;14.80;3.70;;;;;;;16.74;80.50;100800.08;51708;1309;1015993;-80
2022/10/31 10:40:43;;;;;;;15.80;3.60;;;;;;;16.81;80.82;100797.19;51843;1311;1016429;-80
2022/10/31 10:43:23;;;;;;;18.40;3.10;;;;;;;16.84;80.58;100795.23;51850;1310;1016431;-80
2022/10/31 10:49:01;;;;;;;14.30;2.80;;;;;;;16.97;79.99;100793.94;51651;1309;1016479;-78
2022/10/31 10:51:45;;;;;;;11.90;2.90;;;;;;;17.04;79.36;100797.17;51587;1310;1016199;-78
2022/10/31 10:54:50;;;;;;;14.10;3.10;;;;;;;17.09;79.10;100794.61;51745;1304;1016112;-79
2022/10/31 10:57:39;;;;;;;16.70;2.50;;;;;;;17.13;78.60;100788.62;51509;1314;1018085;-78
2022/10/31 11:00:20;;;;;;;17.40;3.30;;;;;;;17.19;78.58;100783.86;51434;1315;1015784;-78
2022/10/31 11:02:53;;;;;;;15.80;3.30;;;;;;;17.27;78.41;100779.23;51560;1293;1016223;-78
2022/10/31 11:05:37;;;;;;;17.60;2.70;;;;;;;17.33;77.93;100777.96;51524;1314;1016464;-79
2022/10/31 11:08:10;;;;;;;11.60;2.00;;;;;;;17.39;77.36;100775.14;51465;1315;1016555;-79
2022/10/31 11:10:42;;;;;;;15.00;3.00;;;;;;;17.43;77.20;100774.52;51602;1315;1015858;-79
2022/10/31 11:13:26;;;;;;;16.20;2.70;;;;;;;17.48;76.74;100775.69;51690;1314;1016425;-79
2022/10/31 11:16:02;;;;;;;18.10;2.40;;;;;;;17.53;77.08;100774.34;51484;1313;1016401;-79
2022/10/31 11:18:35;;;;;;;16.50;3.20;;;;;;;17.60;76.86;100774.74;51237;1314;1018899;-80
2022/10/31 11:21:20;;;;;;;16.40;2.80;;;;;;;17.65;76.66;100771.66;51428;1315;1016468;-80
2022/10/31 11:23:51;;;;;;;19.80;3.10;;;;;;;17.71;76.34;100766.77;51339;1315;1016051;-76
2022/10/31 11:26:23;;;;;;;13.90;2.70;;;;;;;17.77;75.75;100768.14;51251;1312;1016509;-77
2022/10/31 11:29:02;;;;;;;16.00;2.70;;;;;;;17.79;75.44;100762.70;51402;1315;1015638;-78
2022/10/31 11:31:36;;;;;;;22.20;3.10;;;;;;;17.84;75.39;100762.99;51470;1314;1016331;-77
2022/10/31 11:34:15;;;;;;;13.70;2.70;;;;;;;17.92;75.16;100762.41;51498;1314;1016490;-77
2022/10/31 11:36:47;;;;;;;12.60;2.50;;;;;;;18.00;74.44;100757.98;51627;1288;1016521;-78
2022/10/31 11:39:23;;;;;;;21.60;3.60;;;;;;;18.10;74.46;100759.17;51651;1309;1016318;-77